createdAt,value
2023-05-02T00:02:18.065Z,18.17
2023-05-02T00:04:51.060Z,20.43
2023-05-02T00:07:24.170Z,17.17
2023-05-02T00:09:57.009Z,19.77
2023-05-02T00:12:30.335Z,25.08
2023-05-02T00:15:03.181Z,19.30
2023-05-02T00:17:36.516Z,21.10
2023-05-02T00:20:11.917Z,15.50
2023-05-02T00:22:44.696Z,22.75
2023-05-02T00:25:17.678Z,16.73
2023-05-02T00:27:51.495Z,17.85
2023-05-02T00:30:24.442Z,15.48
2023-05-02T00:32:57.789Z,15.18
2023-05-02T00:35:30.973Z,14.65
2023-05-02T00:38:03.816Z,17.35
2023-05-02T00:40:52.474Z,14.43
2023-05-02T00:43:26.409Z,15.72
2023-05-02T00:45:59.189Z,16.65
2023-05-02T00:48:32.653Z,17.37
2023-05-02T00:51:06.703Z,15.20
2023-05-02T00:53:40.502Z,19.60
2023-05-02T00:56:13.323Z,16.35
2023-05-02T00:58:46.573Z,18.62
2023-05-02T01:01:30.285Z,15.88
2023-05-02T01:04:13.860Z,17.65
2023-05-02T01:10:19.247Z,18.90
2023-05-02T01:13:26.106Z,20.88
2023-05-02T01:16:01.702Z,18.67
2023-05-02T01:18:40.228Z,19.52
2023-05-02T01:21:14.212Z,16.95
2023-05-02T01:24:10.045Z,16.73
2023-05-02T01:27:08.424Z,19.23
2023-05-02T01:29:42.727Z,17.80
2023-05-02T01:32:17.712Z,21.93
2023-05-02T01:34:51.080Z,19.57
2023-05-02T01:37:26.324Z,15.70
2023-05-02T01:39:59.877Z,18.23
2023-05-02T01:42:38.164Z,20.85
2023-05-02T01:45:12.731Z,23.55
2023-05-02T01:47:47.327Z,23.47
2023-05-02T01:50:23.860Z,16.85
2023-05-02T01:52:57.402Z,15.15
2023-05-02T01:55:31.061Z,16.40
2023-05-02T01:58:04.605Z,20.30
2023-05-02T02:00:39.463Z,17.85
2023-05-02T02:03:12.824Z,16.57
2023-05-02T02:05:46.444Z,27.15
2023-05-02T02:08:19.611Z,16.52
2023-05-02T02:10:57.358Z,19.07
2023-05-02T02:13:40.560Z,29.00
2023-05-02T02:16:16.534Z,20.23
2023-05-02T02:18:49.334Z,20.60
2023-05-02T02:21:24.127Z,21.82
2023-05-02T02:23:58.595Z,23.77
2023-05-02T02:26:32.212Z,21.12
2023-05-02T02:29:05.897Z,24.27
2023-05-02T02:31:40.222Z,18.37
2023-05-02T02:34:13.687Z,19.12
2023-05-02T02:36:59.410Z,20.08
2023-05-02T02:40:01.555Z,26.45
2023-05-02T02:43:06.872Z,18.77
2023-05-02T02:48:42.882Z,26.20
2023-05-02T02:51:28.858Z,29.27
2023-05-02T02:54:26.977Z,24.50
2023-05-02T02:57:27.193Z,26.50
2023-05-02T03:00:10.999Z,24.87
2023-05-02T03:02:49.055Z,24.90
2023-05-02T03:05:23.688Z,26.30
2023-05-02T03:07:57.007Z,31.52
2023-05-02T03:10:30.850Z,25.35
2023-05-02T03:13:03.954Z,26.30
2023-05-02T03:15:58.449Z,24.27
2023-05-02T03:21:03.917Z,26.82
2023-05-02T03:23:37.051Z,25.02
2023-05-02T03:26:10.008Z,25.25
2023-05-02T03:28:45.069Z,24.45
2023-05-02T03:31:19.067Z,22.73
2023-05-02T03:33:53.466Z,25.43
2023-05-02T03:36:26.542Z,18.05
2023-05-02T03:39:00.078Z,18.77
2023-05-02T03:41:34.774Z,18.35
2023-05-02T03:44:09.270Z,18.37
2023-05-02T03:46:42.465Z,17.10
2023-05-02T03:49:15.913Z,15.90
2023-05-02T03:51:49.144Z,20.30
2023-05-02T03:54:24.369Z,16.17
2023-05-02T03:56:58.408Z,14.30
2023-05-02T03:59:37.573Z,15.60
2023-05-02T04:02:11.929Z,14.73
2023-05-02T04:04:46.667Z,14.05
2023-05-02T04:07:21.489Z,13.90
2023-05-02T04:09:59.120Z,12.63
2023-05-02T04:12:33.153Z,17.25
2023-05-02T04:15:07.720Z,14.45
2023-05-02T04:17:41.043Z,16.90
2023-05-02T04:20:16.220Z,13.62
2023-05-02T04:22:50.951Z,15.43
2023-05-02T04:25:23.825Z,13.25
2023-05-02T04:27:58.931Z,13.18
2023-05-02T04:30:32.541Z,11.55
2023-05-02T04:33:07.150Z,11.40
2023-05-02T04:35:44.819Z,12.28
2023-05-02T04:38:20.532Z,12.98
2023-05-02T04:40:55.135Z,11.93
2023-05-02T04:43:29.993Z,11.18
2023-05-02T04:46:04.720Z,12.35
2023-05-02T04:48:41.242Z,10.48
2023-05-02T04:51:16.953Z,10.85
2023-05-02T04:53:50.735Z,11.80
2023-05-02T04:56:24.594Z,14.55
2023-05-02T04:58:57.439Z,8.85
2023-05-02T05:01:31.245Z,10.65
2023-05-02T05:04:05.372Z,10.68
2023-05-02T05:06:38.738Z,10.10
2023-05-02T05:09:11.575Z,9.93
2023-05-02T05:11:46.426Z,10.63
2023-05-02T05:14:20.263Z,10.60
2023-05-02T05:16:54.708Z,9.48
2023-05-02T05:19:28.169Z,11.50
2023-05-02T05:22:01.414Z,8.88
2023-05-02T05:24:34.492Z,10.03
2023-05-02T05:27:07.486Z,8.68
2023-05-02T05:29:42.297Z,10.30
2023-05-02T05:32:15.655Z,8.90
2023-05-02T05:34:54.267Z,7.62
2023-05-02T05:37:28.886Z,10.98
2023-05-02T05:42:36.181Z,8.85
2023-05-02T05:45:12.620Z,10.03
2023-05-02T05:47:45.758Z,8.85
2023-05-02T05:50:19.456Z,6.22
2023-05-02T05:52:52.703Z,9.53
2023-05-02T05:55:25.446Z,8.03
2023-05-02T05:57:59.116Z,7.83
2023-05-02T06:00:32.569Z,6.80
2023-05-02T06:03:09.877Z,8.43
2023-05-02T06:05:42.709Z,7.30
2023-05-02T06:08:15.662Z,6.90
2023-05-02T06:10:48.645Z,6.83
2023-05-02T06:13:21.624Z,5.72
2023-05-02T06:15:55.508Z,6.20
2023-05-02T06:18:29.431Z,6.45
2023-05-02T06:21:07.318Z,4.40
2023-05-02T06:23:41.405Z,5.85
2023-05-02T06:26:14.332Z,7.33
2023-05-02T06:28:47.724Z,5.13
2023-05-02T06:31:20.648Z,5.22
2023-05-02T06:33:54.078Z,3.17
2023-05-02T06:36:27.993Z,3.22
2023-05-02T06:41:33.411Z,2.25
2023-05-02T06:44:06.497Z,3.22
2023-05-02T06:46:39.702Z,4.72
2023-05-02T06:49:12.955Z,5.10
2023-05-02T06:51:45.979Z,3.30
2023-05-02T06:54:18.988Z,2.72
2023-05-02T06:56:51.879Z,7.37
2023-05-02T06:59:24.854Z,2.75
2023-05-02T07:01:57.971Z,6.95
2023-05-02T07:04:30.889Z,4.85
2023-05-02T07:07:04.359Z,5.67
2023-05-02T07:09:40.425Z,2.80
2023-05-02T07:12:13.300Z,3.95
2023-05-02T07:14:47.210Z,3.87
2023-05-02T07:17:20.135Z,3.75
2023-05-02T07:19:53.647Z,7.15
2023-05-02T07:22:26.960Z,4.07
2023-05-02T07:25:02.731Z,4.25
2023-05-02T07:27:37.144Z,4.12
2023-05-02T07:30:10.933Z,2.77
2023-05-02T07:32:43.971Z,8.33
2023-05-02T07:35:17.340Z,4.80
2023-05-02T07:37:50.089Z,5.83
2023-05-02T07:40:23.627Z,5.75
2023-05-02T07:42:56.445Z,4.57
2023-05-02T07:45:29.605Z,5.70
2023-05-02T07:48:04.242Z,5.55
2023-05-02T07:50:37.621Z,4.17
2023-05-02T07:53:11.458Z,9.10
2023-05-02T07:55:44.466Z,2.90
2023-05-02T07:58:17.215Z,2.58
2023-05-02T08:00:50.804Z,4.40
2023-05-02T08:03:23.779Z,4.22
2023-05-02T08:05:57.198Z,5.40
2023-05-02T08:08:30.268Z,3.83
2023-05-02T08:11:03.260Z,3.65
2023-05-02T08:13:36.323Z,7.78
2023-05-02T08:16:09.445Z,3.37
2023-05-02T08:18:42.553Z,6.53
2023-05-02T08:21:15.663Z,5.62
2023-05-02T08:23:48.535Z,3.80
2023-05-02T08:26:22.129Z,5.80
2023-05-02T08:28:56.713Z,5.50
2023-05-02T08:31:29.707Z,5.15
2023-05-02T08:34:02.600Z,5.05
2023-05-02T08:36:37.646Z,5.85
2023-05-02T08:39:10.998Z,3.90
2023-05-02T08:41:45.274Z,3.33
2023-05-02T08:44:18.490Z,6.05
2023-05-02T08:46:52.311Z,4.60
2023-05-02T08:49:27.572Z,10.05
2023-05-02T08:52:02.568Z,6.55
2023-05-02T08:54:35.979Z,7.25
2023-05-02T08:57:09.086Z,10.03
2023-05-02T08:59:43.593Z,25.77
2023-05-02T09:02:21.281Z,7.60
2023-05-02T09:04:56.614Z,5.22
2023-05-02T09:07:29.439Z,3.52
2023-05-02T09:10:02.342Z,5.60
2023-05-02T09:12:36.979Z,53.02
2023-05-02T09:15:12.579Z,10.60
2023-05-02T09:17:47.701Z,9.03
2023-05-02T09:20:20.402Z,5.30
2023-05-02T09:22:54.469Z,6.72
2023-05-02T09:25:27.455Z,3.87
2023-05-02T09:28:02.198Z,18.48
2023-05-02T09:30:35.466Z,8.83
2023-05-02T09:33:08.322Z,7.55
2023-05-02T09:35:46.033Z,10.28
2023-05-02T09:38:22.787Z,8.75
2023-05-02T09:40:58.959Z,4.62
2023-05-02T09:43:33.743Z,5.58
2023-05-02T09:46:09.500Z,11.80
2023-05-02T09:49:00.200Z,11.93
2023-05-02T09:51:32.978Z,6.53
2023-05-02T09:54:06.218Z,6.08
2023-05-02T09:56:58.931Z,8.90
2023-05-02T09:59:32.236Z,6.65
2023-05-02T10:02:07.802Z,4.33
2023-05-02T10:04:42.148Z,6.55
2023-05-02T10:07:16.354Z,4.40
2023-05-02T10:09:50.690Z,4.90
2023-05-02T10:12:24.815Z,4.95
2023-05-02T10:15:02.006Z,4.05
2023-05-02T10:17:43.862Z,6.22
2023-05-02T10:20:28.245Z,7.20
2023-05-02T10:23:02.959Z,2.58
2023-05-02T10:25:36.740Z,2.65
2023-05-02T10:28:09.774Z,5.10
2023-05-02T10:30:43.388Z,4.80
2023-05-02T10:33:16.776Z,6.15
2023-05-02T10:35:49.697Z,4.28
2023-05-02T10:38:24.962Z,7.00
2023-05-02T10:41:02.662Z,2.60
2023-05-02T10:43:38.230Z,6.15
2023-05-02T10:46:36.816Z,2.33
2023-05-02T10:49:12.699Z,4.53
2023-05-02T10:51:46.262Z,4.08
2023-05-02T10:54:25.957Z,3.87
2023-05-02T10:57:07.855Z,4.75
2023-05-02T10:59:46.817Z,7.62
2023-05-02T11:02:32.926Z,3.40
2023-05-02T11:05:08.560Z,5.70
2023-05-02T11:07:41.669Z,4.60
2023-05-02T11:10:26.635Z,5.03
2023-05-02T11:13:01.635Z,3.65
2023-05-02T11:15:45.277Z,3.22
2023-05-02T11:18:18.570Z,4.80
2023-05-02T11:20:52.845Z,5.40
2023-05-02T11:23:26.696Z,2.92
2023-05-02T11:26:04.782Z,5.40
2023-05-02T11:28:44.136Z,5.95
2023-05-02T11:31:34.858Z,4.12
2023-05-02T11:34:07.748Z,3.98
2023-05-02T11:36:41.041Z,3.75
2023-05-02T11:39:22.802Z,4.33
2023-05-02T11:41:55.880Z,6.62
2023-05-02T11:44:28.997Z,4.17
2023-05-02T11:47:04.138Z,4.37
2023-05-02T11:49:38.036Z,3.87
2023-05-02T11:52:11.229Z,3.85
2023-05-02T11:54:44.345Z,3.27
2023-05-02T11:57:17.754Z,6.53
2023-05-02T11:59:59.333Z,4.70
2023-05-02T12:02:40.669Z,1.98
2023-05-02T12:05:16.845Z,5.83
2023-05-02T12:07:50.220Z,6.87
2023-05-02T12:10:23.086Z,2.50
2023-05-02T12:13:01.060Z,5.50
2023-05-02T12:15:34.333Z,3.83
2023-05-02T12:18:07.646Z,2.77
2023-05-02T12:20:40.521Z,3.40
2023-05-02T12:23:14.319Z,2.98
2023-05-02T12:25:47.711Z,3.15
2023-05-02T12:28:23.068Z,3.65
2023-05-02T12:30:56.175Z,2.40
2023-05-02T12:33:28.913Z,4.97
2023-05-02T12:36:08.622Z,5.45
2023-05-02T12:38:41.496Z,4.55
2023-05-02T12:41:14.835Z,7.87
2023-05-02T12:43:51.501Z,3.12
2023-05-02T12:46:24.804Z,4.33
2023-05-02T12:49:08.401Z,4.70
2023-05-02T12:51:42.388Z,2.65
2023-05-02T12:54:22.715Z,1.90
2023-05-02T12:56:55.641Z,2.55
2023-05-02T12:59:31.128Z,3.22
2023-05-02T13:02:04.575Z,10.45
2023-05-02T13:04:42.411Z,2.67
2023-05-02T13:07:15.449Z,8.05
2023-05-02T13:09:48.335Z,10.30
2023-05-02T13:12:21.839Z,7.62
2023-05-02T13:14:54.721Z,15.68
2023-05-02T13:17:27.945Z,10.25
2023-05-02T13:20:02.589Z,5.67
2023-05-02T13:22:37.804Z,10.58
2023-05-02T13:25:11.790Z,13.13
2023-05-02T13:27:46.359Z,10.40
2023-05-02T13:30:19.455Z,4.72
2023-05-02T13:32:52.893Z,6.30
2023-05-02T13:35:26.053Z,4.60
2023-05-02T13:37:58.922Z,6.30
2023-05-02T13:40:32.067Z,10.63
2023-05-02T13:43:05.264Z,13.95
2023-05-02T13:45:38.060Z,13.10
2023-05-02T13:48:11.182Z,6.17
2023-05-02T13:50:44.098Z,6.30
2023-05-02T13:53:17.048Z,7.03
2023-05-02T13:55:49.866Z,5.72
2023-05-02T13:58:22.919Z,4.85
2023-05-02T14:00:55.850Z,6.47
2023-05-02T14:03:28.953Z,2.85
2023-05-02T14:06:02.013Z,7.10
2023-05-02T14:08:36.032Z,8.03
2023-05-02T14:11:08.904Z,5.47
2023-05-02T14:13:41.930Z,8.23
2023-05-02T14:16:14.604Z,6.15
2023-05-02T14:18:49.800Z,4.73
2023-05-02T14:21:22.773Z,3.37
2023-05-02T14:23:55.703Z,9.33
2023-05-02T14:26:28.433Z,5.90
2023-05-02T14:29:01.895Z,6.95
2023-05-02T14:31:35.034Z,4.17
2023-05-02T14:34:09.070Z,3.22
2023-05-02T14:36:43.061Z,5.53
2023-05-02T14:39:16.304Z,4.97
2023-05-02T14:41:49.041Z,2.47
2023-05-02T14:44:21.973Z,2.45
2023-05-02T14:46:56.875Z,4.05
2023-05-02T14:49:30.016Z,5.20
2023-05-02T14:52:03.013Z,2.02
2023-05-02T14:54:36.251Z,3.15
2023-05-02T14:57:09.176Z,3.95
2023-05-02T14:59:42.092Z,4.87
2023-05-02T15:02:15.319Z,5.25
2023-05-02T15:04:48.297Z,2.90
2023-05-02T15:07:21.164Z,3.42
2023-05-02T15:09:54.043Z,3.95
2023-05-02T15:12:27.076Z,3.45
2023-05-02T15:15:00.269Z,4.07
2023-05-02T15:17:33.380Z,4.85
2023-05-02T15:20:07.122Z,4.10
2023-05-02T15:22:40.091Z,6.00
2023-05-02T15:25:12.977Z,5.80
2023-05-02T15:27:46.169Z,6.42
2023-05-02T15:30:20.071Z,3.45
2023-05-02T15:32:53.644Z,8.13
2023-05-02T15:35:26.422Z,7.03
2023-05-02T15:37:59.342Z,6.25
2023-05-02T15:40:32.223Z,14.03
2023-05-02T15:43:05.057Z,7.00
2023-05-02T15:45:39.337Z,4.67
2023-05-02T15:50:44.950Z,5.78
2023-05-02T15:53:19.354Z,5.30
2023-05-02T15:55:53.543Z,5.85
2023-05-02T15:58:26.547Z,6.33
2023-05-02T16:00:59.663Z,4.08
2023-05-02T16:03:34.717Z,6.35
2023-05-02T16:06:08.169Z,7.95
2023-05-02T16:08:41.930Z,7.62
2023-05-02T16:11:15.179Z,5.92
2023-05-02T16:13:48.286Z,2.62
2023-05-02T16:16:21.122Z,4.70
2023-05-02T16:18:54.228Z,7.53
2023-05-02T16:21:27.254Z,6.92
2023-05-02T16:24:00.213Z,3.10
2023-05-02T16:26:35.573Z,7.42
2023-05-02T16:29:08.431Z,5.58
2023-05-02T16:31:43.624Z,8.63
2023-05-02T16:34:15.908Z,7.15
2023-05-02T16:36:49.029Z,12.82
2023-05-02T16:39:22.095Z,8.78
2023-05-02T16:41:55.381Z,10.72
2023-05-02T16:44:28.434Z,7.78
2023-05-02T16:47:01.459Z,9.80
2023-05-02T16:49:34.488Z,4.90
2023-05-02T16:52:07.499Z,6.72
2023-05-02T16:54:40.470Z,6.67
2023-05-02T16:57:15.311Z,4.60
2023-05-02T16:59:50.746Z,10.20
2023-05-02T17:02:23.960Z,8.38
2023-05-02T17:04:56.907Z,20.30
2023-05-02T17:07:29.893Z,17.48
2023-05-02T17:10:04.288Z,15.58
2023-05-02T17:12:37.805Z,17.55
2023-05-02T17:15:11.700Z,13.68
2023-05-02T17:17:45.145Z,10.50
2023-05-02T17:20:21.004Z,10.38
2023-05-02T17:22:54.746Z,9.30
2023-05-02T17:25:27.916Z,15.18
2023-05-02T17:28:00.817Z,13.88
2023-05-02T17:30:34.233Z,11.65
2023-05-02T17:33:07.282Z,12.23
2023-05-02T17:35:40.685Z,11.83
2023-05-02T17:38:13.630Z,11.70
2023-05-02T17:40:46.425Z,14.13
2023-05-02T17:43:19.450Z,9.10
2023-05-02T17:45:52.643Z,10.53
2023-05-02T17:48:25.833Z,10.23
2023-05-02T17:51:00.593Z,9.45
2023-05-02T17:53:35.825Z,7.62
2023-05-02T17:56:08.856Z,9.50
2023-05-02T17:58:41.964Z,11.50
2023-05-02T18:01:15.998Z,28.23
2023-05-02T18:03:49.464Z,18.80
2023-05-02T18:06:22.558Z,15.32
2023-05-02T18:08:55.737Z,9.73
2023-05-02T18:11:31.981Z,10.98
2023-05-02T18:14:06.506Z,11.90
2023-05-02T18:16:41.022Z,11.38
2023-05-02T18:19:13.909Z,11.68
2023-05-02T18:21:47.121Z,21.33
2023-05-02T18:24:20.148Z,15.05
2023-05-02T18:26:53.422Z,15.03
2023-05-02T18:29:27.134Z,15.13
2023-05-02T18:32:00.166Z,16.70
2023-05-02T18:34:36.925Z,15.20
2023-05-02T18:37:10.105Z,29.10
2023-05-02T18:39:43.024Z,19.23
2023-05-02T18:42:16.241Z,22.85
2023-05-02T18:44:49.219Z,20.43
2023-05-02T18:47:22.454Z,23.18
2023-05-02T18:49:59.319Z,19.37
2023-05-02T18:52:32.983Z,19.87
2023-05-02T18:55:06.822Z,19.05
2023-05-02T18:57:40.069Z,20.15
2023-05-02T19:00:14.403Z,19.95
2023-05-02T19:02:48.132Z,20.82
2023-05-02T19:05:21.416Z,21.70
2023-05-02T19:07:54.293Z,23.95
2023-05-02T19:10:27.396Z,17.90
2023-05-02T19:13:00.304Z,21.02
2023-05-02T19:15:35.548Z,21.68
2023-05-02T19:18:08.967Z,23.10
2023-05-02T19:20:41.933Z,20.55
2023-05-02T19:23:20.060Z,23.87
2023-05-02T19:25:50.600Z,16.57
2023-05-02T19:28:23.677Z,16.67
2023-05-02T19:30:56.440Z,17.17
2023-05-02T19:33:29.426Z,14.95
2023-05-02T19:36:02.556Z,27.00
2023-05-02T19:38:36.715Z,17.80
2023-05-02T19:41:10.025Z,21.60
2023-05-02T19:43:42.973Z,25.68
2023-05-02T19:46:19.514Z,26.75
2023-05-02T19:48:52.854Z,30.70
2023-05-02T19:51:29.929Z,30.57
2023-05-02T19:54:02.991Z,21.00
2023-05-02T19:56:36.889Z,14.18
2023-05-02T19:59:09.959Z,20.30
2023-05-02T20:01:43.003Z,15.60
2023-05-02T20:04:16.285Z,19.70
2023-05-02T20:06:49.554Z,17.95
2023-05-02T20:09:22.485Z,15.45
2023-05-02T20:11:55.231Z,18.80
2023-05-02T20:14:28.020Z,14.15
2023-05-02T20:17:02.152Z,14.85
2023-05-02T20:19:35.362Z,15.13
2023-05-02T20:22:08.407Z,15.75
2023-05-02T20:24:41.605Z,16.60
2023-05-02T20:27:14.599Z,18.52
2023-05-02T20:29:47.579Z,16.60
2023-05-02T20:32:21.782Z,16.93
2023-05-02T20:37:26.746Z,9.73
2023-05-02T20:40:00.493Z,9.65
2023-05-02T20:42:34.121Z,12.15
2023-05-02T20:45:08.567Z,13.53
2023-05-02T20:47:42.223Z,10.53
2023-05-02T20:50:16.652Z,11.63
2023-05-02T20:52:49.702Z,13.68
2023-05-02T20:55:23.311Z,13.35
2023-05-02T21:00:28.951Z,14.85
2023-05-02T21:03:02.274Z,10.58
2023-05-02T21:05:35.445Z,15.18
2023-05-02T21:08:08.815Z,14.05
2023-05-02T21:10:41.562Z,14.15
2023-05-02T21:13:14.508Z,18.42
2023-05-02T21:15:47.592Z,16.55
2023-05-02T21:18:21.376Z,15.35
2023-05-02T21:20:54.114Z,15.45
2023-05-02T21:23:27.092Z,14.75
2023-05-02T21:25:59.925Z,15.78
2023-05-02T21:28:33.697Z,17.07
2023-05-02T21:31:08.378Z,16.40
2023-05-02T21:33:41.978Z,13.55
2023-05-02T21:36:15.132Z,13.03
2023-05-02T21:38:47.997Z,14.55
2023-05-02T21:41:21.140Z,16.00
2023-05-02T21:43:54.495Z,14.90
2023-05-02T21:46:27.708Z,12.93
2023-05-02T21:49:00.802Z,15.47
2023-05-02T21:51:34.719Z,22.82
2023-05-02T21:54:07.723Z,17.30
2023-05-02T21:56:40.789Z,15.23
2023-05-02T21:59:14.023Z,14.90
2023-05-02T22:01:46.692Z,14.23
2023-05-02T22:04:21.104Z,14.98
2023-05-02T22:06:54.692Z,17.37
2023-05-02T22:09:29.039Z,19.42
2023-05-02T22:12:03.169Z,12.00
2023-05-02T22:14:44.424Z,18.65
2023-05-02T22:17:10.712Z,24.40
2023-05-02T22:19:43.533Z,17.40
2023-05-02T22:22:16.466Z,22.27
2023-05-02T22:24:51.261Z,15.53
2023-05-02T22:27:24.014Z,16.37
2023-05-02T22:29:57.490Z,15.08
2023-05-02T22:32:30.352Z,17.32
2023-05-02T22:35:04.196Z,14.43
2023-05-02T22:37:37.035Z,21.27
2023-05-02T22:40:11.650Z,22.93
2023-05-02T22:42:44.591Z,18.62
2023-05-02T22:45:17.834Z,20.90
2023-05-02T22:47:52.557Z,25.72
2023-05-02T22:52:59.853Z,24.18
2023-05-02T22:55:32.953Z,15.98
2023-05-02T22:58:06.089Z,18.20
2023-05-02T23:00:38.808Z,14.83
2023-05-02T23:03:12.278Z,17.27
2023-05-02T23:05:45.256Z,17.17
2023-05-02T23:08:20.632Z,14.80
2023-05-02T23:10:53.656Z,15.03
2023-05-02T23:13:27.358Z,16.95
2023-05-02T23:16:00.276Z,16.80
2023-05-02T23:18:33.297Z,17.32
2023-05-02T23:21:06.692Z,14.53
2023-05-02T23:23:39.492Z,16.10
2023-05-02T23:26:13.382Z,14.10
2023-05-02T23:28:46.258Z,14.98
2023-05-02T23:31:19.835Z,11.97
2023-05-02T23:33:52.670Z,13.68
2023-05-02T23:36:26.042Z,15.83
2023-05-02T23:38:59.003Z,18.52
2023-05-02T23:41:32.379Z,14.87
2023-05-02T23:44:06.242Z,16.90
2023-05-02T23:46:39.823Z,15.10
2023-05-02T23:49:12.692Z,22.17
2023-05-02T23:51:46.455Z,12.77
2023-05-02T23:54:19.326Z,15.80
2023-05-02T23:56:52.550Z,18.98
2023-05-02T23:59:25.720Z,16.02
